Time;durP1;ratioP1;P1;durP2;ratioP2;P2;SDS_P1;SDS_P2;PMS_P1;PMS_P2;Temp;Humidity;BMP_temperature;BMP_pressure;BME280_temperature;BME280_humidity;BME280_pressure;Samples;Min_cycle;Max_cycle;Signal;HPM_P1;HPM_P2
2021/10/03 00:02:11;;;;;;;;;3.00;3.00;;;;;18.45;76.10;99248.44;5002821;28;45262;-66
2021/10/03 00:04:40;;;;;;;;;2.50;2.25;;;;;18.31;76.22;99224.53;4989776;28;45492;-66
2021/10/03 00:07:06;;;;;;;;;4.00;3.25;;;;;18.44;76.49;99233.25;5001070;28;47459;-66
2021/10/03 00:09:32;;;;;;;;;2.00;2.00;;;;;18.39;76.46;99227.38;5001955;28;45469;-66
2021/10/03 00:11:57;;;;;;;;;2.75;2.75;;;;;18.37;76.28;99217.72;5002625;28;45208;-66
2021/10/03 00:14:23;;;;;;;;;4.00;3.00;;;;;18.34;75.90;99213.41;5002639;28;45251;-66
2021/10/03 00:16:52;;;;;;;;;3.25;3.25;;;;;18.29;75.86;99199.47;5002260;28;45350;-66
2021/10/03 00:19:21;;;;;;;;;3.25;2.50;;;;;18.30;75.74;99185.00;5002485;28;45729;-66
2021/10/03 00:21:47;;;;;;;;;5.00;4.00;;;;;18.20;75.73;99178.69;5002374;28;45299;-66
2021/10/03 00:24:13;;;;;;;;;2.50;2.50;;;;;18.30;75.86;99198.50;5002322;28;45291;-66
2021/10/03 00:26:39;;;;;;;;;4.00;3.25;;;;;18.35;75.76;99207.03;5002159;28;45443;-66
2021/10/03 00:29:05;;;;;;;;;2.75;2.75;;;;;18.34;75.87;99183.72;5002358;28;45464;-66
2021/10/03 00:31:34;;;;;;;;;3.00;3.00;;;;;18.47;76.27;99192.41;5005916;28;45400;-66
2021/10/03 00:34:00;;;;;;;;;4.00;4.00;;;;;18.35;76.27;99174.63;5002234;28;45282;-66
2021/10/03 00:36:25;;;;;;;;;4.00;2.50;;;;;18.27;76.07;99160.94;5008817;28;45716;-66
2021/10/03 00:38:51;;;;;;;;;4.00;4.00;;;;;18.34;76.04;99167.50;5000412;28;45322;-66
2021/10/03 00:41:17;;;;;;;;;4.25;2.50;;;;;18.50;76.03;99194.00;5003595;28;45464;-66
2021/10/03 00:43:42;;;;;;;;;2.00;2.00;;;;;18.37;76.25;99169.09;5012262;28;45335;-66
2021/10/03 00:46:08;;;;;;;;;2.50;2.50;;;;;18.48;75.85;99183.34;5001837;28;45283;-66
2021/10/03 00:48:33;;;;;;;;;4.00;3.00;;;;;18.46;76.15;99173.63;5002220;28;45329;-66
2021/10/03 00:50:59;;;;;;;;;3.25;3.00;;;;;18.39;75.50;99169.78;5002011;28;45876;-66
2021/10/03 00:53:27;;;;;;;;;2.50;2.00;;;;;18.55;75.83;99182.78;5001907;28;45305;-66
2021/10/03 00:55:53;;;;;;;;;2.00;2.00;;;;;18.50;75.92;99178.63;4988507;28;46301;-66
2021/10/03 00:58:19;;;;;;;;;3.25;2.25;;;;;18.36;75.87;99152.03;5001985;28;45341;-66
2021/10/03 01:00:44;;;;;;;;;3.50;3.50;;;;;18.34;75.86;99145.88;5001831;28;45433;-66
2021/10/03 01:03:10;;;;;;;;;5.00;4.00;;;;;18.27;75.67;99139.34;5001867;28;45505;-66
2021/10/03 01:05:36;;;;;;;;;2.50;2.00;;;;;18.39;75.75;99142.78;5001641;28;45394;-66
2021/10/03 01:08:03;;;;;;;;;3.25;3.25;;;;;18.32;75.89;99140.63;4983820;28;45199;-66
2021/10/03 01:10:30;;;;;;;;;4.25;4.25;;;;;18.37;75.93;99144.78;5000187;28;45292;-66
2021/10/03 01:13:05;;;;;;;;;4.00;4.00;;;;;18.39;75.76;99151.72;5001786;28;45517;-66
2021/10/03 01:15:34;;;;;;;;;3.75;3.75;;;;;18.41;75.98;99141.66;5001445;28;46359;-66
2021/10/03 01:18:00;;;;;;;;;5.50;5.00;;;;;18.39;75.91;99134.69;5001561;28;45437;-66
2021/10/03 01:20:26;;;;;;;;;5.00;5.00;;;;;18.37;76.18;99110.50;5001551;28;45251;-66
2021/10/03 01:22:52;;;;;;;;;5.00;4.50;;;;;18.48;76.02;99139.25;5001411;28;45488;-66
2021/10/03 01:25:18;;;;;;;;;5.75;4.00;;;;;18.49;75.87;99141.81;5001034;28;45708;-66
2021/10/03 01:27:44;;;;;;;;;4.50;4.50;;;;;18.36;76.29;99110.63;5001467;28;45279;-66
2021/10/03 01:30:17;;;;;;;;;5.00;5.00;;;;;18.34;75.95;99118.88;5001443;28;45452;-66
2021/10/03 01:32:43;;;;;;;;;6.00;5.25;;;;;18.36;76.25;99108.81;5004807;28;45736;-66
2021/10/03 01:35:10;;;;;;;;;5.75;5.75;;;;;18.36;75.63;99106.13;4983160;28;46466;-66
2021/10/03 01:37:39;;;;;;;;;6.50;5.75;;;;;18.33;76.17;99101.81;5007741;28;45498;-66
2021/10/03 01:40:07;;;;;;;;;8.00;6.00;;;;;18.46;75.88;99116.91;5001144;28;45239;-66
2021/10/03 01:42:33;;;;;;;;;5.00;5.00;;;;;18.35;76.06;99092.75;5012928;28;45237;-66
2021/10/03 01:44:58;;;;;;;;;3.50;3.50;;;;;18.30;75.86;99083.19;4983527;28;46860;-66
2021/10/03 01:47:24;;;;;;;;;4.25;4.00;;;;;18.23;76.21;99073.94;5001041;28;45262;-66
2021/10/03 01:49:52;;;;;;;;;6.50;6.50;;;;;18.25;75.76;99054.91;5001322;28;45164;-66
2021/10/03 01:52:18;;;;;;;;;5.50;5.50;;;;;18.25;75.66;99066.56;5000844;28;45487;-66
2021/10/03 01:54:43;;;;;;;;;5.25;4.75;;;;;18.28;75.96;99068.97;4995539;28;46248;-66
2021/10/03 01:57:09;;;;;;;;;4.25;4.25;;;;;18.27;75.67;99067.25;4992760;28;45437;-66
2021/10/03 01:59:35;;;;;;;;;4.75;4.75;;;;;18.26;75.83;99068.28;5000957;28;45494;-66
2021/10/03 02:02:00;;;;;;;;;5.75;5.75;;;;;18.31;76.18;99071.41;5000774;28;45206;-66
2021/10/03 02:04:27;;;;;;;;;5.50;5.00;;;;;18.32;75.99;99066.84;5000773;28;46525;-66
2021/10/03 02:06:55;;;;;;;;;5.75;5.75;;;;;18.27;76.06;99050.22;5000654;28;45453;-66
2021/10/03 02:09:24;;;;;;;;;4.00;4.00;;;;;18.29;76.08;99048.22;5000340;28;45309;-66
2021/10/03 02:11:59;;;;;;;;;5.75;5.75;;;;;18.37;76.04;99056.47;4983034;28;45575;-66
2021/10/03 02:14:30;;;;;;;;;5.00;4.25;;;;;18.40;75.73;99069.72;5000737;28;45416;-66
2021/10/03 02:16:57;;;;;;;;;5.25;5.00;;;;;18.39;76.21;99040.97;5000480;28;45484;-66
2021/10/03 02:19:25;;;;;;;;;4.25;4.00;;;;;18.40;75.98;99047.25;4982977;28;45508;-66
2021/10/03 02:21:52;;;;;;;;;3.75;3.00;;;;;18.29;75.81;99026.63;4999995;28;45239;-66
2021/10/03 02:24:18;;;;;;;;;6.25;5.00;;;;;18.37;75.92;99034.88;4998837;28;47691;-66
2021/10/03 02:26:44;;;;;;;;;7.50;5.50;;;;;18.08;75.79;98978.16;4982743;28;45318;-66
2021/10/03 02:29:10;;;;;;;;;4.75;4.75;;;;;18.36;75.97;99030.47;5000572;28;45262;-66
2021/10/03 02:31:36;;;;;;;;;5.75;5.75;;;;;18.22;75.74;99001.19;5003472;28;45452;-66
2021/10/03 02:34:02;;;;;;;;;6.00;5.00;;;;;18.35;75.38;99017.97;5000245;28;45423;-66
2021/10/03 02:36:27;;;;;;;;;4.50;4.50;;;;;18.21;75.77;99005.72;5005143;28;45346;-66
2021/10/03 02:38:53;;;;;;;;;6.00;5.75;;;;;18.29;76.02;99005.88;5000061;28;45451;-66
2021/10/03 02:41:20;;;;;;;;;7.25;6.25;;;;;18.30;75.75;99012.13;5001984;28;45499;-66
2021/10/03 02:43:49;;;;;;;;;4.50;4.50;;;;;18.17;75.67;98982.69;4991327;28;47882;-66
2021/10/03 02:46:17;;;;;;;;;7.00;5.00;;;;;18.31;75.95;99008.44;5000283;28;46642;-66
2021/10/03 02:48:49;;;;;;;;;7.25;5.00;;;;;18.31;75.60;99017.38;5000336;28;45404;-66
2021/10/03 02:51:16;;;;;;;;;4.75;3.75;;;;;18.26;76.00;99008.88;5000151;28;45250;-66
2021/10/03 02:53:41;;;;;;;;;5.25;4.75;;;;;17.97;75.99;98949.41;4999790;28;45360;-66
2021/10/03 02:56:07;;;;;;;;;6.00;6.00;;;;;18.11;76.09;98969.78;4986741;28;45314;-66
2021/10/03 02:58:32;;;;;;;;;4.25;4.00;;;;;18.01;75.48;98950.88;5000061;28;45432;-66
2021/10/03 03:00:58;;;;;;;;;5.00;5.00;;;;;18.30;75.56;98985.13;5000117;28;45464;-66
2021/10/03 03:03:23;;;;;;;;;5.00;5.00;;;;;18.03;76.01;98954.25;4999945;28;46515;-66
2021/10/03 03:05:48;;;;;;;;;5.00;5.00;;;;;18.11;75.52;98950.88;4999908;28;45330;-66
2021/10/03 03:08:14;;;;;;;;;5.50;5.50;;;;;18.26;75.53;98975.56;5000079;28;45971;-66
2021/10/03 03:10:42;;;;;;;;;10.75;7.00;;;;;18.29;76.16;98978.00;4999419;28;45345;-66
2021/10/03 03:13:08;;;;;;;;;6.75;6.00;;;;;18.11;75.75;98962.50;4999868;28;45495;-66
2021/10/03 03:15:33;;;;;;;;;5.25;5.25;;;;;18.24;75.93;98983.84;4999767;28;45222;-66
2021/10/03 03:17:59;;;;;;;;;6.75;6.75;;;;;18.03;75.87;98946.16;4999968;28;45386;-66
2021/10/03 03:20:24;;;;;;;;;5.25;3.50;;;;;18.12;75.76;98945.31;4978746;28;45305;-66
2021/10/03 03:22:50;;;;;;;;;6.50;6.50;;;;;18.06;75.33;98927.00;4990910;28;45550;-66
2021/10/03 03:25:16;;;;;;;;;6.00;6.00;;;;;18.09;74.94;98920.44;4999420;28;45447;-66
2021/10/03 03:27:43;;;;;;;;;7.25;5.75;;;;;18.13;75.19;98927.28;4999811;28;45349;-66
2021/10/03 03:30:10;;;;;;;;;6.00;5.75;;;;;18.12;75.54;98923.69;4999637;28;45298;-66
2021/10/03 03:32:36;;;;;;;;;5.50;5.50;;;;;18.25;75.10;98942.31;5001474;28;48398;-66
2021/10/03 03:35:03;;;;;;;;;5.50;5.50;;;;;18.10;75.14;98914.06;5002751;28;45264;-66
2021/10/03 03:37:28;;;;;;;;;4.00;4.00;;;;;18.11;75.50;98927.41;5009666;28;45291;-66
2021/10/03 03:39:54;;;;;;;;;5.50;4.50;;;;;18.13;75.44;98924.56;5002695;28;45463;-66
2021/10/03 03:42:19;;;;;;;;;5.00;5.00;;;;;18.06;75.09;98913.50;5012890;28;46601;-66
2021/10/03 03:44:45;;;;;;;;;8.75;7.00;;;;;18.07;75.15;98917.03;5004436;28;45497;-66
2021/10/03 03:47:10;;;;;;;;;6.00;6.00;;;;;18.09;75.22;98921.31;5003062;28;45350;-66
2021/10/03 03:49:36;;;;;;;;;6.50;5.25;;;;;18.23;74.87;98933.53;5002806;28;45530;-66
2021/10/03 03:52:02;;;;;;;;;6.25;6.25;;;;;18.08;75.06;98921.44;4984976;28;45909;-66
2021/10/03 03:54:27;;;;;;;;;7.75;6.25;;;;;18.26;74.96;98951.28;4999442;28;45456;-66
2021/10/03 03:56:52;;;;;;;;;7.25;5.75;;;;;18.15;75.05;98927.97;4992932;28;45223;-66
2021/10/03 03:59:18;;;;;;;;;5.75;5.00;;;;;18.13;75.11;98913.78;5002494;28;45523;-66
2021/10/03 04:01:43;;;;;;;;;7.00;6.25;;;;;18.06;74.90;98913.50;5002539;28;45401;-66
2021/10/03 04:04:10;;;;;;;;;6.00;6.00;;;;;18.09;75.13;98923.13;5002644;28;45383;-66
2021/10/03 04:06:36;;;;;;;;;6.75;6.75;;;;;18.26;74.82;98943.16;5002979;28;45321;-66
2021/10/03 04:09:01;;;;;;;;;5.25;5.25;;;;;18.14;75.12;98920.84;5001952;28;45244;-66
2021/10/03 04:11:27;;;;;;;;;7.75;7.75;;;;;18.05;75.17;98913.63;5002473;28;45573;-66
2021/10/03 04:13:52;;;;;;;;;5.75;4.75;;;;;18.07;74.95;98922.44;5002357;28;45498;-66
2021/10/03 04:16:18;;;;;;;;;7.00;7.00;;;;;17.99;75.27;98906.09;5002574;28;45482;-66
2021/10/03 04:18:43;;;;;;;;;6.75;5.75;;;;;18.25;75.00;98949.59;5002476;28;45391;-66
2021/10/03 04:21:09;;;;;;;;;7.00;6.25;;;;;18.03;74.92;98913.78;5002262;28;45510;-66
2021/10/03 04:23:34;;;;;;;;;7.00;7.00;;;;;18.01;75.06;98920.28;5001999;28;45235;-66
2021/10/03 04:25:59;;;;;;;;;8.00;8.00;;;;;18.02;75.05;98933.66;5002595;28;45235;-66
2021/10/03 04:28:25;;;;;;;;;5.50;5.50;;;;;18.20;74.91;98952.72;5002336;28;45484;-66
2021/10/03 04:30:52;;;;;;;;;8.25;7.00;;;;;18.11;75.31;98949.03;5002542;28;45924;-66
2021/10/03 04:33:18;;;;;;;;;7.50;7.50;;;;;18.01;75.21;98937.38;5005379;28;45456;-66
2021/10/03 04:35:43;;;;;;;;;11.75;8.25;;;;;18.04;75.76;98944.31;5006116;28;45336;-66
2021/10/03 04:38:09;;;;;;;;;5.75;5.75;;;;;18.01;75.63;98940.06;5004891;28;45442;-66
2021/10/03 04:40:34;;;;;;;;;6.50;6.50;;;;;17.95;75.51;98922.56;5001731;28;45393;-66
2021/10/03 04:43:00;;;;;;;;;9.50;8.00;;;;;18.04;75.54;98939.78;5014004;28;45440;-66
2021/10/03 04:45:25;;;;;;;;;5.00;5.00;;;;;17.98;75.48;98926.00;5000692;28;45315;-66
2021/10/03 04:47:50;;;;;;;;;8.25;6.75;;;;;17.94;75.25;98922.69;5001851;28;45179;-66
2021/10/03 04:50:16;;;;;;;;;5.25;5.25;;;;;17.99;75.66;98925.84;5002118;28;45240;-66
2021/10/03 04:52:43;;;;;;;;;9.75;7.50;;;;;17.98;75.85;98936.81;5001783;28;45319;-66
2021/10/03 04:55:11;;;;;;;;;7.50;6.75;;;;;17.96;75.53;98929.69;4993289;28;45417;-66
2021/10/03 04:57:38;;;;;;;;;7.75;7.75;;;;;17.94;75.53;98917.31;4997785;28;45337;-66
2021/10/03 05:00:08;;;;;;;;;6.25;6.25;;;;;17.97;76.08;98930.53;5001709;28;45397;-66
2021/10/03 05:02:34;;;;;;;;;7.00;6.00;;;;;17.98;75.68;98928.69;5001255;28;45473;-66
2021/10/03 05:05:00;;;;;;;;;9.25;8.00;;;;;18.11;76.21;98934.66;5001906;28;45438;-66
2021/10/03 05:07:25;;;;;;;;;7.00;7.00;;;;;17.83;75.74;98891.28;5001448;28;45435;-66
2021/10/03 05:09:51;;;;;;;;;8.50;7.00;;;;;17.95;76.20;98906.38;5001253;28;45568;-66
2021/10/03 05:12:17;;;;;;;;;7.25;7.25;;;;;18.12;76.01;98939.91;5001534;28;45337;-66
2021/10/03 05:14:43;;;;;;;;;9.50;9.50;;;;;17.95;76.20;98898.28;5001796;28;45519;-66
2021/10/03 05:17:08;;;;;;;;;8.25;7.00;;;;;18.06;76.63;98943.19;5001275;28;45424;-66
2021/10/03 05:19:34;;;;;;;;;8.25;7.50;;;;;18.03;76.08;98931.81;5001610;28;45406;-66
2021/10/03 05:21:59;;;;;;;;;7.50;6.50;;;;;18.22;75.80;98964.22;5001229;28;45391;-66
2021/10/03 05:24:25;;;;;;;;;9.50;8.00;;;;;18.26;76.09;98987.25;5001218;28;45246;-66
2021/10/03 05:26:51;;;;;;;;;7.75;6.75;;;;;18.14;76.25;98950.56;5001398;28;45663;-66
2021/10/03 05:29:16;;;;;;;;;8.00;7.00;;;;;18.18;76.11;98983.56;5001223;28;45431;-66
2021/10/03 05:31:42;;;;;;;;;7.75;6.50;;;;;18.09;76.21;98959.13;5004483;28;45277;-66
2021/10/03 05:34:07;;;;;;;;;8.00;7.75;;;;;18.12;76.46;98955.25;5001427;28;45290;-66
2021/10/03 05:36:32;;;;;;;;;9.25;5.00;;;;;18.11;76.57;98958.97;5007582;28;45167;-65
2021/10/03 05:39:00;;;;;;;;;5.75;5.75;;;;;18.14;76.13;98970.34;5001049;28;46173;-65
2021/10/03 05:41:26;;;;;;;;;2.00;2.00;;;;;18.28;76.00;98981.72;5003596;28;45536;-66
2021/10/03 05:43:52;;;;;;;;;2.00;2.00;;;;;18.01;75.88;98972.47;5009819;28;45495;-65
2021/10/03 05:46:17;;;;;;;;;0.00;0.00;;;;;18.12;74.85;98983.09;5001104;28;45404;-66
2021/10/03 05:48:43;;;;;;;;;0.00;0.00;;;;;18.01;74.85;98980.56;5000959;28;45344;-66
2021/10/03 05:51:08;;;;;;;;;0.00;0.00;;;;;17.99;74.86;99017.63;5001022;28;45421;-66
2021/10/03 05:53:34;;;;;;;;;0.00;0.00;;;;;18.05;74.27;99021.63;5000796;28;45299;-66
2021/10/03 05:56:00;;;;;;;;;0.00;0.00;;;;;18.12;74.55;99033.56;4986944;28;45320;-66
2021/10/03 05:58:26;;;;;;;;;0.00;0.00;;;;;18.00;74.12;99050.88;5000797;28;45434;-66
2021/10/03 06:00:51;;;;;;;;;0.00;0.00;;;;;18.05;73.89;99062.97;5000929;28;45282;-66
2021/10/03 06:03:16;;;;;;;;;0.75;0.00;;;;;18.08;73.75;99080.75;5001082;28;45523;-66
2021/10/03 06:05:42;;;;;;;;;0.00;0.00;;;;;18.00;73.78;99078.72;5000897;28;45338;-66
2021/10/03 06:08:07;;;;;;;;;0.00;0.00;;;;;18.03;73.75;99086.56;4999275;28;47258;-66
2021/10/03 06:10:33;;;;;;;;;0.00;0.00;;;;;17.99;73.72;99078.88;5000356;28;45323;-66
2021/10/03 06:12:58;;;;;;;;;0.00;0.00;;;;;18.09;73.63;99088.72;5000973;28;45251;-66
2021/10/03 06:15:24;;;;;;;;;0.00;0.00;;;;;18.00;73.34;99059.00;4983023;28;45270;-66
2021/10/03 06:17:49;;;;;;;;;0.00;0.00;;;;;17.93;73.14;99072.19;4982774;28;47369;-66
2021/10/03 06:20:15;;;;;;;;;0.00;0.00;;;;;17.91;73.30;99082.28;4982955;28;45466;-66
2021/10/03 06:22:44;;;;;;;;;0.00;0.00;;;;;17.92;73.20;99092.06;5000647;28;45325;-66
2021/10/03 06:25:10;;;;;;;;;0.00;0.00;;;;;17.86;73.05;99079.06;5000367;28;45338;-66
2021/10/03 06:27:36;;;;;;;;;0.00;0.00;;;;;17.77;73.39;99070.81;4982745;28;48505;-66
2021/10/03 06:30:02;;;;;;;;;0.00;0.00;;;;;17.82;73.28;99077.66;4999167;28;46146;-66
2021/10/03 06:32:28;;;;;;;;;0.00;0.00;;;;;17.96;73.07;99101.59;5004882;28;45353;-66
2021/10/03 06:34:53;;;;;;;;;0.00;0.00;;;;;17.78;73.23;99082.47;4982688;28;45587;-66
2021/10/03 06:37:19;;;;;;;;;0.00;0.00;;;;;17.75;73.22;99090.81;5006381;28;47146;-66
2021/10/03 06:39:45;;;;;;;;;0.00;0.00;;;;;17.73;73.09;99074.78;4999968;28;45241;-66
2021/10/03 06:42:10;;;;;;;;;0.00;0.00;;;;;17.67;72.94;99055.56;5009244;28;45403;-66
2021/10/03 06:44:36;;;;;;;;;0.00;0.00;;;;;17.67;73.06;99058.28;5002901;28;45385;-66
2021/10/03 06:47:05;;;;;;;;;0.00;0.00;;;;;17.66;72.83;99095.19;4999826;28;46407;-66
2021/10/03 06:49:31;;;;;;;;;0.00;0.00;;;;;17.77;73.21;99103.22;4999590;28;45271;-66
2021/10/03 06:51:57;;;;;;;;;0.25;0.00;;;;;17.80;73.38;99087.72;5000432;28;45318;-66
2021/10/03 06:54:22;;;;;;;;;0.00;0.00;;;;;17.67;73.51;99042.09;4992382;28;45447;-66
2021/10/03 07:00:00;;;;;;;;;0.00;0.00;;;;;17.72;73.60;99046.06;5200069;23;46699;-70
2021/10/03 07:10:46;;;;;;;;;;;;;;;;;;;;;
2021/10/03 07:51:18;;;;;;;;;1.00;0.50;;;;;17.44;74.11;99152.88;5178580;27;45356;-65
2021/10/03 07:53:47;;;;;;;;;1.50;1.50;;;;;17.55;74.29;99176.22;5127166;27;45475;-64
2021/10/03 07:56:12;;;;;;;;;3.00;1.00;;;;;17.66;73.92;99178.84;5141179;27;45266;-68
2021/10/03 07:58:52;;;;;;;;;1.50;1.50;;;;;17.66;73.79;99181.53;5133747;27;45463;-65
2021/10/03 08:01:28;;;;;;;;;;;;;;;;;;;;;
2021/10/03 08:03:55;;;;;;;;;1.50;1.50;;;;;17.60;74.08;99180.22;5130433;27;71406;-67
2021/10/03 08:06:34;;;;;;;;;;;;;;;;;;;;;
2021/10/03 08:09:20;;;;;;;;;2.25;2.25;;;;;17.63;74.14;99189.91;5122954;27;71408;-66
2021/10/03 08:15:16;;;;;;;;;2.00;2.00;;;;;17.49;74.38;99174.91;5104802;27;45246;-66
2021/10/03 08:17:57;;;;;;;;;;;;;;;;;;;;;
2021/10/03 08:20:26;;;;;;;;;1.00;1.00;;;;;17.50;74.46;99176.59;5116589;27;72680;-69
2021/10/03 08:23:45;;;;;;;;;;;;;;;;;;;;;
2021/10/03 08:26:41;;;;;;;;;;;;;;;;;;;;;
2021/10/03 08:29:07;;;;;;;;;1.00;1.00;;;;;17.56;74.87;99204.91;5121942;27;70341;-64
2021/10/03 08:31:32;;;;;;;;;1.00;1.00;;;;;17.36;74.44;99176.97;5124994;27;45445;-63
2021/10/03 08:33:58;;;;;;;;;1.00;0.50;;;;;17.51;74.62;99199.06;5127812;27;45514;-64
2021/10/03 08:36:24;;;;;;;;;0.50;0.50;;;;;17.63;74.47;99214.19;5133981;27;45412;-64
2021/10/03 08:38:52;;;;;;;;;1.00;1.00;;;;;17.68;74.62;99211.94;5114979;27;45596;-63
2021/10/03 08:41:19;;;;;;;;;1.25;1.25;;;;;17.62;74.69;99203.53;5130305;27;45425;-64
2021/10/03 08:43:44;;;;;;;;;1.00;1.00;;;;;17.72;74.70;99234.13;5127812;27;48222;-64
2021/10/03 08:46:10;;;;;;;;;1.75;0.75;;;;;17.62;74.40;99214.31;5120176;27;46052;-64
2021/10/03 08:48:36;;;;;;;;;3.00;1.25;;;;;17.71;75.15;99243.22;5135771;27;45452;-64
2021/10/03 08:51:02;;;;;;;;;1.50;1.25;;;;;17.70;74.73;99249.59;5128317;27;45364;-63
2021/10/03 08:53:28;;;;;;;;;1.75;1.00;;;;;17.63;74.94;99251.97;5126019;27;45859;-64
2021/10/03 08:55:56;;;;;;;;;3.50;2.75;;;;;17.72;74.93;99266.50;5118261;27;45398;-64
2021/10/03 08:58:23;;;;;;;;;1.75;1.75;;;;;17.53;75.50;99230.31;5127092;27;45352;-64
2021/10/03 09:00:50;;;;;;;;;2.00;2.00;;;;;17.64;75.21;99252.81;5123937;27;45447;-63
2021/10/03 09:03:17;;;;;;;;;2.75;2.00;;;;;17.65;75.59;99254.53;5110292;27;46224;-64
2021/10/03 09:05:48;;;;;;;;;3.00;3.00;;;;;17.78;75.64;99272.22;5098668;27;45656;-64
2021/10/03 09:08:18;;;;;;;;;3.75;3.00;;;;;17.68;75.65;99275.88;5126673;27;45667;-65
2021/10/03 09:10:50;;;;;;;;;3.00;1.75;;;;;17.77;75.75;99289.44;5113443;27;45863;-65
2021/10/03 09:13:18;;;;;;;;;1.75;1.75;;;;;17.62;75.58;99262.88;5103493;27;48350;-64
2021/10/03 09:15:44;;;;;;;;;1.75;1.75;;;;;17.79;76.34;99305.47;5117871;27;45511;-65
2021/10/03 09:18:09;;;;;;;;;1.00;0.75;;;;;17.58;76.55;99282.03;5121898;27;45338;-65
2021/10/03 09:20:37;;;;;;;;;2.00;2.00;;;;;17.71;76.31;99303.44;5124558;27;45495;-65
2021/10/03 09:23:17;;;;;;;;;0.75;0.75;;;;;17.62;76.04;99293.41;5118483;27;46134;-65
2021/10/03 09:25:52;;;;;;;;;0.75;0.75;;;;;17.74;76.25;99318.50;5109079;27;45660;-65
2021/10/03 09:28:22;;;;;;;;;0.00;0.00;;;;;17.81;76.81;99318.81;5119861;27;45668;-64
2021/10/03 09:30:54;;;;;;;;;3.00;2.00;;;;;17.82;76.70;99325.94;5118061;27;45331;-65
2021/10/03 09:33:20;;;;;;;;;1.00;1.00;;;;;17.81;76.55;99329.63;5097224;27;47937;-65
2021/10/03 09:35:59;;;;;;;;;1.00;0.75;;;;;17.68;76.67;99314.47;5117280;27;45451;-65
2021/10/03 09:38:27;;;;;;;;;0.00;0.00;;;;;17.65;76.67;99311.19;5119599;27;45474;-65
2021/10/03 09:41:05;;;;;;;;;0.25;0.00;;;;;17.79;77.40;99345.94;5121637;27;45538;-64
2021/10/03 09:43:38;;;;;;;;;1.00;0.75;;;;;17.76;77.19;99354.31;5106519;27;45869;-64
2021/10/03 09:46:03;;;;;;;;;1.50;0.50;;;;;17.69;77.17;99410.66;5101994;27;45530;-65
2021/10/03 09:48:28;;;;;;;;;0.75;0.00;;;;;17.75;75.93;99452.47;5134863;27;45422;-65
2021/10/03 09:50:54;;;;;;;;;0.00;0.00;;;;;17.52;74.45;99452.50;5107732;27;45528;-64
2021/10/03 09:53:21;;;;;;;;;0.00;0.00;;;;;17.66;73.93;99499.06;5100499;27;46393;-69
2021/10/03 09:55:47;;;;;;;;;0.00;0.00;;;;;17.62;72.57;99520.06;5095805;27;45562;-69
2021/10/03 09:58:12;;;;;;;;;0.00;0.00;;;;;17.30;71.97;99507.34;5117964;27;45435;-65
2021/10/03 10:00:38;;;;;;;;;0.00;0.00;;;;;17.16;71.63;99510.28;5108298;27;45407;-65
2021/10/03 10:03:04;;;;;;;;;0.25;0.00;;;;;17.25;71.73;99541.91;5131137;27;46172;-65
2021/10/03 10:05:29;;;;;;;;;0.00;0.00;;;;;16.97;72.03;99530.63;5120115;27;45680;-65
2021/10/03 10:07:56;;;;;;;;;1.00;0.00;;;;;17.17;71.57;99584.78;5118348;27;45484;-65
2021/10/03 10:10:23;;;;;;;;;0.00;0.00;;;;;16.84;72.33;99535.22;5106848;27;45511;-65
2021/10/03 10:13:01;;;;;;;;;0.00;0.00;;;;;16.90;71.75;99580.56;5119251;27;45487;-65
2021/10/03 10:15:27;;;;;;;;;0.00;0.00;;;;;16.89;71.61;99603.13;5096001;27;45942;-65
2021/10/03 10:17:53;;;;;;;;;0.00;0.00;;;;;16.83;71.76;99642.13;5113942;27;45413;-65
2021/10/03 10:20:22;;;;;;;;;0.00;0.00;;;;;16.95;71.59;99653.84;5114233;27;45639;-65
2021/10/03 10:22:55;;;;;;;;;0.00;0.00;;;;;16.89;71.79;99672.34;5095841;27;46196;-65
2021/10/03 10:25:42;;;;;;;;;0.75;0.00;;;;;16.70;71.69;99638.66;5089734;27;45985;-65
2021/10/03 10:28:14;;;;;;;;;0.00;0.00;;;;;16.78;71.57;99673.97;5096410;27;45452;-65
2021/10/03 10:31:12;;;;;;;;;0.00;0.00;;;;;16.66;72.04;99677.59;5111862;27;45332;-65
2021/10/03 10:33:49;;;;;;;;;0.00;0.00;;;;;16.72;71.77;99708.59;5048497;27;45523;-65
2021/10/03 10:36:22;;;;;;;;;0.00;0.00;;;;;16.65;71.52;99702.81;5112272;27;45364;-65
2021/10/03 10:39:09;;;;;;;;;0.00;0.00;;;;;16.66;71.84;99718.00;5113965;27;45442;-65
2021/10/03 10:41:47;;;;;;;;;0.00;0.00;;;;;16.49;70.97;99703.09;5109814;27;45448;-65
2021/10/03 10:44:27;;;;;;;;;0.00;0.00;;;;;16.57;71.03;99735.72;5117793;27;45633;-65
2021/10/03 10:47:06;;;;;;;;;0.00;0.00;;;;;16.51;71.43;99757.72;5088312;27;45549;-65
2021/10/03 10:49:44;;;;;;;;;0.00;0.00;;;;;16.35;71.05;99755.25;5101514;27;45485;-65
2021/10/03 10:52:22;;;;;;;;;0.00;0.00;;;;;16.45;70.98;99807.50;5101264;27;45310;-65
2021/10/03 10:55:00;;;;;;;;;0.00;0.00;;;;;16.42;70.67;99806.84;5106352;27;45305;-65
2021/10/03 10:57:26;;;;;;;;;0.00;0.00;;;;;16.33;70.95;99816.47;5103003;27;45351;-65
2021/10/03 11:00:24;;;;;;;;;0.00;0.00;;;;;16.38;71.01;99835.84;5090828;27;45483;-65
2021/10/03 11:03:01;;;;;;;;;0.75;0.75;;;;;16.11;71.05;99799.13;5113464;27;45338;-65
2021/10/03 11:05:40;;;;;;;;;0.00;0.00;;;;;16.30;71.19;99819.38;5128160;27;46730;-65
2021/10/03 11:08:13;;;;;;;;;2.00;0.00;;;;;16.27;71.26;99803.41;5082707;27;45973;-65
2021/10/03 11:10:57;;;;;;;;;0.00;0.00;;;;;16.28;70.85;99814.09;5103109;27;45507;-65
2021/10/03 11:13:37;;;;;;;;;0.50;0.50;;;;;16.27;70.89;99814.19;5094318;27;45968;-65
2021/10/03 11:16:27;;;;;;;;;0.50;0.50;;;;;16.28;70.85;99838.31;5109034;27;46222;-65
2021/10/03 11:19:14;;;;;;;;;0.00;0.00;;;;;16.15;70.86;99824.00;5096325;27;46712;-65
2021/10/03 11:21:45;;;;;;;;;0.00;0.00;;;;;16.19;70.85;99828.22;5114747;27;45417;-65
2021/10/03 11:24:17;;;;;;;;;0.00;0.00;;;;;16.11;70.14;99827.88;5090503;27;45882;-65
2021/10/03 11:26:51;;;;;;;;;0.25;0.25;;;;;16.29;70.32;99885.84;5106734;27;45338;-65
2021/10/03 11:29:18;;;;;;;;;2.25;0.75;;;;;16.28;70.29;99894.03;5082353;27;45712;-65
2021/10/03 11:31:49;;;;;;;;;0.25;0.25;;;;;16.25;69.71;99907.69;5118508;27;45439;-65
2021/10/03 11:34:28;;;;;;;;;0.00;0.00;;;;;16.18;70.45;99887.56;5091574;27;45370;-65
2021/10/03 11:36:55;;;;;;;;;0.75;0.75;;;;;16.31;70.13;99920.75;5095997;27;47686;-65
2021/10/03 11:39:35;;;;;;;;;0.00;0.00;;;;;16.35;69.94;99932.16;5092331;27;45358;-65
2021/10/03 11:42:01;;;;;;;;;1.00;1.00;;;;;16.26;69.95;99920.19;5109754;27;45521;-65
2021/10/03 11:44:26;;;;;;;;;1.00;1.00;;;;;16.32;70.69;99943.13;5102632;27;45918;-65
2021/10/03 11:46:55;;;;;;;;;1.00;1.00;;;;;16.38;70.29;99956.19;5117685;27;45973;-65
2021/10/03 11:49:31;;;;;;;;;0.00;0.00;;;;;16.32;70.15;99948.53;5107246;27;45237;-65
2021/10/03 11:52:00;;;;;;;;;1.00;1.00;;;;;16.17;70.36;99921.72;5110420;27;45391;-65
2021/10/03 11:54:33;;;;;;;;;0.75;0.75;;;;;16.37;69.32;99970.63;5113890;27;45417;-65
2021/10/03 11:57:30;;;;;;;;;0.00;0.00;;;;;16.24;69.10;99946.38;5104784;27;45449;-65
2021/10/03 12:00:15;;;;;;;;;0.00;0.00;;;;;16.29;68.86;99952.31;5108081;27;45461;-65
2021/10/03 12:02:42;;;;;;;;;1.00;1.00;;;;;16.42;69.05;99969.34;5102700;27;45337;-65
2021/10/03 12:05:10;;;;;;;;;0.00;0.00;;;;;16.32;69.47;99952.06;5109881;27;45444;-65
2021/10/03 12:07:36;;;;;;;;;3.00;2.00;;;;;16.26;69.12;99958.75;5115823;27;46251;-65
2021/10/03 12:10:13;;;;;;;;;1.00;1.00;;;;;16.52;68.89;99988.41;5115574;27;45216;-65
2021/10/03 12:12:55;;;;;;;;;0.00;0.00;;;;;16.45;68.87;99969.09;5106817;27;45242;-65
2021/10/03 12:15:42;;;;;;;;;0.00;0.00;;;;;16.48;68.87;99968.06;5102373;27;46091;-65
2021/10/03 12:18:11;;;;;;;;;1.50;1.00;;;;;16.35;68.54;99968.03;5101567;27;46905;-65
2021/10/03 12:21:19;;;;;;;;;0.00;0.00;;;;;16.58;68.38;99989.81;5083104;27;45466;-65
2021/10/03 12:23:44;;;;;;;;;0.00;0.00;;;;;16.58;68.61;99987.97;5030162;28;45755;-65
2021/10/03 12:26:21;;;;;;;;;0.75;0.75;;;;;16.54;68.34;99991.88;5096802;27;45587;-65
2021/10/03 12:28:53;;;;;;;;;0.00;0.00;;;;;16.62;67.74;100005.69;5106230;27;46236;-65
2021/10/03 12:31:41;;;;;;;;;0.00;0.00;;;;;16.53;67.54;99984.75;5110432;27;45175;-65
2021/10/03 12:34:14;;;;;;;;;0.00;0.00;;;;;16.64;67.79;100011.81;5110262;27;45293;-65
2021/10/03 12:36:55;;;;;;;;;2.75;0.00;;;;;16.52;67.94;100003.72;5124597;27;45282;-65
2021/10/03 12:39:25;;;;;;;;;1.00;1.00;;;;;16.65;67.61;100032.38;5129747;27;46100;-65
2021/10/03 12:41:53;;;;;;;;;0.00;0.00;;;;;16.44;67.10;99997.03;5111541;27;45237;-65
2021/10/03 12:44:23;;;;;;;;;0.00;0.00;;;;;16.67;67.20;100037.69;5122542;27;45266;-65